Time;durP1;ratioP1;P1;durP2;ratioP2;P2;SDS_P1;SDS_P2;PMS_P1;PMS_P2;Temp;Humidity;BMP_temperature;BMP_pressure;BME280_temperature;BME280_humidity;BME280_pressure;Samples;Min_cycle;Max_cycle;Signal;HPM_P1;HPM_P2
2023/09/29 00:01:39;;;;;;;16.52;7.60;;;;;;;14.76;100.00;101556.88;4953311;29;20032;-76
2023/09/29 00:04:05;;;;;;;13.52;7.63;;;;;;;14.81;100.00;101557.38;4953487;29;20066;-82
2023/09/29 00:06:34;;;;;;;14.73;8.02;;;;;;;14.65;100.00;101529.03;4953386;29;20057;-75
2023/09/29 00:09:12;;;;;;;16.42;7.93;;;;;;;14.74;100.00;101543.13;4953625;29;20046;-77
2023/09/29 00:11:38;;;;;;;18.13;7.93;;;;;;;14.81;100.00;101547.81;4953669;29;20059;-76
2023/09/29 00:14:03;;;;;;;14.55;7.13;;;;;;;14.19;100.00;101450.75;4953499;29;20063;-75
2023/09/29 00:16:28;;;;;;;17.55;8.18;;;;;;;14.23;100.00;101458.22;4936263;28;20035;-75
2023/09/29 00:18:55;;;;;;;17.08;7.28;;;;;;;14.91;100.00;101563.59;4953226;29;20054;-74
2023/09/29 00:21:20;;;;;;;15.13;7.20;;;;;;;14.82;100.00;101548.63;4953488;29;20412;-75
2023/09/29 00:23:46;;;;;;;15.95;7.55;;;;;;;14.86;100.00;101552.69;4953488;29;20064;-74
2023/09/29 00:26:11;;;;;;;16.45;7.30;;;;;;;14.69;100.00;101512.25;4953271;29;20039;-76
2023/09/29 00:28:36;;;;;;;13.60;6.63;;;;;;;14.96;100.00;101552.88;4953304;29;20479;-76
2023/09/29 00:31:09;;;;;;;14.70;6.72;;;;;;;14.83;100.00;101530.31;4953002;28;20028;-76
2023/09/29 00:33:40;;;;;;;20.55;7.22;;;;;;;14.85;100.00;101528.47;4935741;28;20051;-76
2023/09/29 00:36:06;;;;;;;12.00;6.40;;;;;;;14.51;100.00;101467.56;4952564;29;20579;-75
2023/09/29 00:38:33;;;;;;;15.98;6.65;;;;;;;15.07;100.00;101553.78;4935957;29;20061;-76
2023/09/29 00:40:58;;;;;;;14.10;6.60;;;;;;;15.09;100.00;101556.28;4935755;29;20043;-75
2023/09/29 00:43:24;;;;;;;15.30;6.47;;;;;;;14.81;100.00;101498.41;4935460;29;20035;-75
2023/09/29 00:45:49;;;;;;;13.93;6.72;;;;;;;15.04;100.00;101530.59;4952861;28;20036;-77
2023/09/29 00:48:16;;;;;;;17.05;6.28;;;;;;;15.02;100.00;101524.66;4952736;29;20124;-75
2023/09/29 00:50:44;;;;;;;12.55;6.03;;;;;;;15.10;100.00;101532.75;4952851;29;20039;-75
2023/09/29 00:53:13;;;;;;;13.90;6.47;;;;;;;14.80;100.00;101477.72;4953014;29;20031;-76
2023/09/29 00:55:42;;;;;;;15.73;5.93;;;;;;;15.03;100.00;101510.72;4936503;29;20366;-75
2023/09/29 00:58:08;;;;;;;13.05;6.43;;;;;;;15.20;100.00;101538.16;4952777;29;20027;-76
2023/09/29 01:00:38;;;;;;;14.25;6.72;;;;;;;15.20;100.00;101536.38;4953052;28;20035;-75
2023/09/29 01:03:06;;;;;;;19.42;7.00;;;;;;;15.10;100.00;101514.56;4952389;29;20031;-75
2023/09/29 01:05:42;;;;;;;11.63;6.68;;;;;;;14.97;100.00;101498.16;4935469;29;20089;-74
2023/09/29 01:08:20;;;;;;;12.80;6.32;;;;;;;14.49;100.00;101408.84;4951799;28;20039;-75
2023/09/29 01:10:45;;;;;;;14.07;5.95;;;;;;;14.99;100.00;101479.84;4952690;29;20023;-76
2023/09/29 01:13:14;;;;;;;13.50;6.60;;;;;;;14.81;100.00;101455.97;4952702;28;20385;-76
2023/09/29 01:15:46;;;;;;;12.93;6.43;;;;;;;15.18;100.00;101509.63;4952295;29;20023;-75
2023/09/29 01:18:11;;;;;;;11.93;6.05;;;;;;;15.12;100.00;101497.06;4966012;23;20051;-76
2023/09/29 01:20:40;;;;;;;13.60;6.65;;;;;;;15.29;100.00;101518.44;4954440;28;20096;-75
2023/09/29 01:23:06;;;;;;;13.13;6.70;;;;;;;14.91;100.00;101459.56;4971813;28;20072;-76
2023/09/29 01:25:32;;;;;;;12.48;6.15;;;;;;;15.31;100.00;101517.38;4971736;28;20031;-76
2023/09/29 01:28:01;;;;;;;10.52;6.25;;;;;;;15.31;100.00;101511.34;5034946;23;20071;-76
2023/09/29 01:30:27;;;;;;;13.40;6.25;;;;;;;15.31;100.00;101499.16;4952264;29;20032;-74
2023/09/29 01:32:59;;;;;;;14.77;6.55;;;;;;;15.24;100.00;101482.38;4952369;29;20023;-73
2023/09/29 01:35:25;;;;;;;13.90;6.32;;;;;;;15.31;100.00;101487.94;4952205;29;20070;-74
2023/09/29 01:37:53;;;;;;;10.55;5.45;;;;;;;15.28;100.00;101486.38;4935304;29;20513;-73
2023/09/29 01:40:20;;;;;;;10.77;6.00;;;;;;;15.15;100.00;101462.22;4952314;28;20031;-74
2023/09/29 01:42:46;;;;;;;13.80;6.18;;;;;;;15.02;100.00;101441.44;4936083;28;20035;-75
2023/09/29 01:45:13;;;;;;;12.10;6.05;;;;;;;15.19;100.00;101459.25;4953388;29;20053;-73
2023/09/29 01:47:45;;;;;;;12.25;6.32;;;;;;;15.23;100.00;101464.22;4953182;29;20042;-74
2023/09/29 01:50:17;;;;;;;10.25;5.60;;;;;;;15.01;100.00;101429.38;4952193;28;20499;-75
2023/09/29 01:52:46;;;;;;;11.57;5.80;;;;;;;14.95;100.00;101411.63;4934985;28;20034;-75
2023/09/29 01:55:16;;;;;;;11.80;5.78;;;;;;;15.08;100.00;101430.59;4951980;29;20111;-75
2023/09/29 01:57:49;;;;;;;12.90;5.95;;;;;;;15.30;100.00;101455.88;4951853;29;20384;-75
2023/09/29 02:00:19;;;;;;;10.38;5.43;;;;;;;15.31;100.00;101464.50;4952016;29;20035;-76
2023/09/29 02:02:46;;;;;;;11.15;5.47;;;;;;;15.21;100.00;101448.75;4952076;28;20085;-75
2023/09/29 02:05:12;;;;;;;9.27;4.53;;;;;;;14.89;100.00;101397.28;4951710;29;20039;-76
2023/09/29 02:07:39;;;;;;;9.05;4.72;;;;;;;15.14;100.00;101443.16;4952029;29;20023;-74
2023/09/29 02:10:18;;;;;;;8.32;4.65;;;;;;;15.26;100.00;101454.44;4951672;28;20055;-73
2023/09/29 02:12:53;;;;;;;8.13;4.28;;;;;;;15.32;100.00;101459.19;4951611;29;20392;-75
2023/09/29 02:15:19;;;;;;;10.43;5.07;;;;;;;15.31;100.00;101459.31;4934693;28;20388;-75
2023/09/29 02:17:48;;;;;;;9.52;4.80;;;;;;;15.17;100.00;101442.09;4951392;29;20027;-73
2023/09/29 02:20:18;;;;;;;9.80;4.47;;;;;;;14.98;100.00;101418.38;4954746;29;20019;-74
2023/09/29 02:22:44;;;;;;;6.97;4.38;;;;;;;14.82;100.00;101393.44;4955070;29;20104;-74
2023/09/29 02:25:11;;;;;;;8.18;4.75;;;;;;;15.17;100.00;101450.75;4955022;28;20389;-75
2023/09/29 02:27:43;;;;;;;10.60;4.78;;;;;;;14.77;100.00;101389.53;4954907;29;20031;-75
2023/09/29 02:30:12;;;;;;;10.45;4.90;;;;;;;15.11;100.00;101448.56;4955173;28;20023;-74
2023/09/29 02:32:46;;;;;;;8.88;5.07;;;;;;;14.62;100.00;101381.88;4937711;28;20410;-75
2023/09/29 02:35:13;;;;;;;8.40;4.65;;;;;;;14.69;100.00;101384.88;4954891;29;20085;-75
2023/09/29 02:37:38;;;;;;;9.65;4.70;;;;;;;14.70;100.00;101373.53;4954786;29;20027;-74
2023/09/29 02:40:18;;;;;;;9.55;4.05;;;;;;;14.89;100.00;101386.88;4954864;28;20031;-75
2023/09/29 02:42:46;;;;;;;8.82;4.05;;;;;;;14.88;100.00;101377.41;4954817;28;20150;-74
2023/09/29 02:45:12;;;;;;;8.75;4.00;;;;;;;15.33;100.00;101436.59;4954566;29;20031;-74
2023/09/29 02:47:46;;;;;;;7.85;3.90;;;;;;;15.17;100.00;101403.09;4954564;29;20092;-75
2023/09/29 02:50:12;;;;;;;11.25;3.90;;;;;;;15.35;100.00;101426.94;4954598;29;20472;-74
2023/09/29 02:52:41;;;;;;;8.88;3.90;;;;;;;15.04;100.00;101376.28;4954660;28;20085;-75
2023/09/29 02:55:15;;;;;;;7.07;3.83;;;;;;;15.43;100.00;101434.97;4954481;28;20054;-74
2023/09/29 02:57:44;;;;;;;9.70;3.78;;;;;;;15.44;100.00;101421.88;4954424;28;20105;-74
2023/09/29 03:00:26;;;;;;;7.15;3.40;;;;;;;15.13;100.00;101367.81;4954342;28;20476;-75
2023/09/29 03:02:52;;;;;;;6.95;3.25;;;;;;;15.52;100.00;101412.66;4954207;29;20019;-76
2023/09/29 03:05:21;;;;;;;9.82;3.28;;;;;;;15.44;100.00;101401.06;4954441;29;20081;-76
2023/09/29 03:07:47;;;;;;;6.68;3.50;;;;;;;15.25;100.00;101366.94;4954235;29;20523;-75
2023/09/29 03:10:14;;;;;;;7.85;3.40;;;;;;;15.49;100.00;101388.50;4954457;28;20031;-74
2023/09/29 03:12:45;;;;;;;8.35;3.40;;;;;;;15.69;100.00;101420.06;4954268;29;20042;-74
2023/09/29 03:15:15;;;;;;;9.48;3.42;;;;;;;15.36;100.00;101358.31;4954293;29;20043;-75
2023/09/29 03:17:50;;;;;;;8.05;3.38;;;;;;;15.35;100.00;101354.06;4937389;29;20047;-74
2023/09/29 03:20:19;;;;;;;8.65;3.35;;;;;;;15.75;100.00;101420.44;4954283;29;20023;-74
2023/09/29 03:22:46;;;;;;;7.75;3.38;;;;;;;15.79;100.00;101413.22;4954182;29;20027;-75
2023/09/29 03:25:19;;;;;;;6.65;3.38;;;;;;;15.60;100.00;101369.53;4954126;28;20077;-73
2023/09/29 03:27:45;;;;;;;6.55;3.30;;;;;;;15.72;100.00;101388.59;4953930;29;20039;-74
2023/09/29 03:30:16;;;;;;;7.50;3.50;;;;;;;15.78;100.00;101390.75;4953247;28;20039;-74
2023/09/29 03:32:45;;;;;;;6.90;3.30;;;;;;;15.84;100.00;101392.88;4954056;29;20031;-74
2023/09/29 03:35:17;;;;;;;8.50;3.30;;;;;;;15.76;100.00;101382.22;4953897;29;20062;-75
2023/09/29 03:37:44;;;;;;;8.75;3.30;;;;;;;15.89;100.00;101376.91;4954037;28;20059;-76
2023/09/29 03:40:11;;;;;;;7.15;3.42;;;;;;;15.86;100.00;101380.56;4954065;28;20031;-75
2023/09/29 03:42:37;;;;;;;6.90;3.20;;;;;;;15.74;100.00;101353.69;4953676;28;20027;-74
2023/09/29 03:45:06;;;;;;;6.53;3.40;;;;;;;15.82;100.00;101363.50;4953839;29;20427;-73
2023/09/29 03:47:37;;;;;;;6.63;3.28;;;;;;;15.67;100.00;101346.47;4954251;28;20038;-75
2023/09/29 03:50:10;;;;;;;6.53;3.53;;;;;;;15.64;100.00;101347.53;4953791;28;20031;-77
2023/09/29 03:52:36;;;;;;;8.93;3.75;;;;;;;15.77;100.00;101370.84;4953984;28;20114;-74
2023/09/29 03:55:02;;;;;;;7.55;3.35;;;;;;;15.73;100.00;101364.19;4953719;29;20108;-75
2023/09/29 03:57:32;;;;;;;8.20;3.75;;;;;;;15.59;100.00;101348.78;4953751;29;20067;-75
2023/09/29 04:00:00;;;;;;;7.32;3.47;;;;;;;15.57;100.00;101350.69;4936575;28;20030;-74
2023/09/29 04:02:26;;;;;;;7.63;4.18;;;;;;;15.66;100.00;101358.66;4936690;28;20058;-76
2023/09/29 04:04:51;;;;;;;6.65;3.50;;;;;;;15.66;100.00;101352.63;4953295;28;20063;-75
2023/09/29 04:07:23;;;;;;;7.72;3.63;;;;;;;15.55;100.00;101337.78;4953651;28;20027;-75
2023/09/29 04:09:48;;;;;;;6.30;3.40;;;;;;;15.70;100.00;101348.81;4953538;28;20031;-76
2023/09/29 04:12:32;;;;;;;7.80;3.80;;;;;;;15.19;100.00;101258.94;4953694;28;20037;-75
2023/09/29 04:14:57;;;;;;;8.68;3.95;;;;;;;15.69;100.00;101337.59;4953436;29;20047;-76
2023/09/29 04:17:22;;;;;;;8.18;3.75;;;;;;;15.71;100.00;101346.09;4953269;28;20054;-75
2023/09/29 04:19:51;;;;;;;9.02;3.83;;;;;;;15.67;100.00;101323.03;4953162;28;20478;-75
2023/09/29 04:22:16;;;;;;;7.00;3.30;;;;;;;15.77;100.00;101337.81;4953446;29;20038;-82
2023/09/29 04:24:44;;;;;;;12.00;3.72;;;;;;;15.53;100.00;101292.78;4953283;29;20536;-82
2023/09/29 04:27:10;;;;;;;10.48;3.75;;;;;;;15.84;100.00;101329.56;4953311;28;20071;-74
2023/09/29 04:29:35;;;;;;;8.05;3.63;;;;;;;15.91;100.00;101325.50;4953195;28;20093;-74
2023/09/29 04:32:01;;;;;;;7.40;3.60;;;;;;;15.93;100.00;101327.06;5051709;22;20141;-75
2023/09/29 04:34:26;;;;;;;5.55;3.35;;;;;;;15.77;100.00;101298.78;4953045;28;20055;-75
2023/09/29 04:36:53;;;;;;;6.50;3.63;;;;;;;15.73;100.00;101286.94;4936008;28;20556;-79
2023/09/29 04:39:19;;;;;;;6.18;3.60;;;;;;;16.02;100.00;101328.09;4952941;29;20027;-74
2023/09/29 04:41:44;;;;;;;7.88;3.58;;;;;;;15.65;100.00;101262.44;4952933;29;20043;-75
2023/09/29 04:44:10;;;;;;;7.82;3.47;;;;;;;15.79;100.00;101275.22;4953170;29;20034;-74
2023/09/29 04:46:35;;;;;;;7.30;3.33;;;;;;;15.94;100.00;101294.03;4952705;29;20492;-75
2023/09/29 04:49:03;;;;;;;6.47;3.00;;;;;;;15.91;100.00;101292.47;4953100;28;20041;-74
2023/09/29 04:51:32;;;;;;;6.50;3.40;;;;;;;16.07;100.00;101315.56;4952870;29;20030;-79
2023/09/29 04:53:58;;;;;;;5.97;3.10;;;;;;;16.08;100.00;101319.00;4952817;29;20035;-76
2023/09/29 04:56:23;;;;;;;9.00;3.90;;;;;;;16.09;100.00;101324.09;4952848;29;20027;-75
2023/09/29 04:58:49;;;;;;;7.15;3.70;;;;;;;15.89;100.00;101290.94;4952786;29;20358;-74
2023/09/29 05:01:21;;;;;;;6.70;3.70;;;;;;;15.96;100.00;101305.16;4952618;29;20515;-74
2023/09/29 05:03:47;;;;;;;6.68;3.47;;;;;;;15.83;100.00;101286.19;4951210;28;20034;-76
2023/09/29 05:06:25;;;;;;;7.18;3.67;;;;;;;15.58;100.00;101241.22;4952943;29;20035;-76
2023/09/29 05:08:51;;;;;;;9.43;3.65;;;;;;;16.09;100.00;101321.47;4953985;29;20031;-75
2023/09/29 05:11:37;;;;;;;8.98;3.50;;;;;;;16.13;100.00;101304.66;4953140;28;20023;-77
2023/09/29 05:14:11;;;;;;;6.30;3.42;;;;;;;15.98;100.00;101279.81;4952466;29;20031;-75
2023/09/29 05:16:43;;;;;;;7.82;4.03;;;;;;;15.95;100.00;101260.06;4952592;29;20055;-74
2023/09/29 05:19:09;;;;;;;6.95;3.38;;;;;;;16.21;100.00;101304.88;4952286;29;20366;-76
2023/09/29 05:21:36;;;;;;;9.50;4.03;;;;;;;16.21;100.00;101298.84;4952444;29;20031;-75
2023/09/29 05:24:01;;;;;;;8.48;3.90;;;;;;;16.15;100.00;101281.09;4952286;29;20030;-76
2023/09/29 05:26:27;;;;;;;7.03;3.75;;;;;;;16.22;100.00;101290.91;4952514;29;20039;-77
2023/09/29 05:28:53;;;;;;;9.27;3.95;;;;;;;16.24;100.00;101301.22;4952417;29;20041;-77
2023/09/29 05:31:19;;;;;;;7.50;3.58;;;;;;;16.24;100.00;101302.03;4952273;29;20085;-77
2023/09/29 05:33:44;;;;;;;6.07;3.65;;;;;;;16.20;100.00;101284.16;4952321;28;20043;-76
2023/09/29 05:36:10;;;;;;;9.15;3.83;;;;;;;16.24;100.00;101296.84;4952321;29;20038;-75
2023/09/29 05:38:35;;;;;;;8.05;4.10;;;;;;;16.25;100.00;101295.06;4952160;29;20102;-76
2023/09/29 05:41:00;;;;;;;8.13;4.03;;;;;;;16.14;100.00;101284.66;4952427;29;20027;-76
2023/09/29 05:43:26;;;;;;;8.82;4.13;;;;;;;16.19;100.00;101296.34;4952236;29;20031;-75
2023/09/29 05:45:51;;;;;;;7.63;4.28;;;;;;;16.16;100.00;101287.97;4952287;29;20361;-76
2023/09/29 05:48:17;;;;;;;7.95;4.32;;;;;;;15.94;100.00;101253.19;4952203;29;20038;-77
2023/09/29 05:50:42;;;;;;;8.15;4.15;;;;;;;16.23;100.00;101289.13;4951737;29;20106;-79
2023/09/29 05:53:07;;;;;;;7.68;4.35;;;;;;;16.14;100.00;101274.22;4935564;28;20035;-78
2023/09/29 05:55:34;;;;;;;7.95;3.75;;;;;;;16.16;100.00;101278.38;4951902;29;20381;-76
2023/09/29 05:58:00;;;;;;;7.57;4.00;;;;;;;16.27;100.00;101295.75;4951984;29;20507;-78
2023/09/29 06:00:26;;;;;;;8.45;4.20;;;;;;;16.27;100.00;101298.34;4952016;29;20023;-78
2023/09/29 06:02:51;;;;;;;8.02;3.90;;;;;;;16.20;100.00;101274.56;4952507;29;20381;-76
2023/09/29 06:05:17;;;;;;;9.93;4.55;;;;;;;16.29;100.00;101293.84;4951828;29;20058;-75
2023/09/29 06:07:44;;;;;;;7.90;4.38;;;;;;;16.27;100.00;101291.38;4951816;28;20655;-76
2023/09/29 06:10:11;;;;;;;7.60;3.85;;;;;;;16.10;100.00;101263.22;4952127;29;20026;-76
2023/09/29 06:12:37;;;;;;;8.27;4.35;;;;;;;16.34;100.00;101296.94;4951771;29;20031;-76
2023/09/29 06:15:03;;;;;;;7.63;4.03;;;;;;;16.44;100.00;101315.28;4951705;29;20483;-78
2023/09/29 06:17:29;;;;;;;7.13;4.05;;;;;;;16.34;100.00;101292.53;4951670;29;20027;-76
2023/09/29 06:19:55;;;;;;;8.13;4.18;;;;;;;16.49;100.00;101300.91;4951614;29;20145;-74
2023/09/29 06:22:21;;;;;;;7.60;3.97;;;;;;;16.63;100.00;101323.28;4951617;29;20055;-73
2023/09/29 06:24:47;;;;;;;7.65;4.20;;;;;;;16.66;100.00;101311.75;4951587;28;20030;-74
2023/09/29 06:27:12;;;;;;;9.40;4.50;;;;;;;16.68;100.00;101300.28;4952031;29;20429;-73
2023/09/29 06:29:41;;;;;;;7.10;3.90;;;;;;;16.71;100.00;101286.97;4951906;29;20032;-72
2023/09/29 06:32:08;;;;;;;8.10;3.60;;;;;;;16.64;100.00;101276.22;5107466;23;20515;-73
2023/09/29 06:37:36;;;;;;;8.50;3.80;;;;;;;16.99;100.00;101316.84;4989872;23;20047;-71
2023/09/29 06:40:02;;;;;;;4.78;3.20;;;;;;;17.04;100.00;101322.53;4933871;28;20043;-73
2023/09/29 06:42:27;;;;;;;5.45;3.17;;;;;;;16.91;100.00;101296.63;4951434;29;20485;-72
2023/09/29 06:44:52;;;;;;;5.63;3.50;;;;;;;17.02;100.00;101307.97;4951114;29;20034;-77
2023/09/29 06:47:18;;;;;;;7.00;3.30;;;;;;;17.04;100.00;101317.31;4951206;29;20038;-76
2023/09/29 06:49:43;;;;;;;7.85;3.22;;;;;;;17.06;100.00;101315.41;4951392;29;20110;-76
2023/09/29 06:52:08;;;;;;;6.43;2.85;;;;;;;17.12;100.00;101324.53;4951101;29;20031;-80
2023/09/29 06:54:34;;;;;;;7.88;2.67;;;;;;;17.16;100.00;101325.91;4951428;29;20082;-78
2023/09/29 06:57:00;;;;;;;5.68;2.85;;;;;;;17.17;100.00;101330.19;4951337;29;20063;-76
2023/09/29 06:59:26;;;;;;;8.23;2.90;;;;;;;17.09;100.00;101306.50;4951358;29;20093;-77
2023/09/29 07:01:51;;;;;;;5.78;3.40;;;;;;;17.22;100.00;101333.25;4951345;29;20477;-80
2023/09/29 07:04:17;;;;;;;6.78;2.85;;;;;;;17.21;100.00;101315.94;4951145;28;20489;-76
2023/09/29 07:06:43;;;;;;;6.90;2.92;;;;;;;17.30;100.00;101320.34;4953027;28;20031;-80
2023/09/29 07:09:09;;;;;;;7.68;3.15;;;;;;;17.40;100.00;101330.84;4954474;29;20035;-79
2023/09/29 07:11:35;;;;;;;6.50;3.13;;;;;;;17.35;100.00;101315.59;4954674;29;20024;-78
2023/09/29 07:14:00;;;;;;;6.57;3.17;;;;;;;17.56;100.00;101333.03;4954339;29;20030;-78
2023/09/29 07:16:26;;;;;;;7.00;3.40;;;;;;;17.46;100.00;101301.63;4954329;29;20027;-76
2023/09/29 07:18:52;;;;;;;4.25;2.90;;;;;;;17.63;100.00;101310.66;4954310;29;20469;-77
2023/09/29 07:21:19;;;;;;;6.53;3.15;;;;;;;17.80;100.00;101298.78;4954302;29;20043;-77
2023/09/29 07:23:44;;;;;;;4.97;2.70;;;;;;;18.10;100.00;101327.53;4937100;29;20027;-77
2023/09/29 07:26:10;;;;;;;6.20;3.05;;;;;;;18.22;100.00;101315.16;4954202;29;20031;-75
2023/09/29 07:28:35;;;;;;;4.53;2.70;;;;;;;18.49;100.00;101330.22;4954294;29;20027;-80
2023/09/29 07:31:00;;;;;;;7.57;2.78;;;;;;;18.66;100.00;101336.59;4954370;29;20074;-77
2023/09/29 07:33:26;;;;;;;7.18;2.90;;;;;;;18.77;100.00;101342.50;4954118;29;20028;-77
2023/09/29 07:35:54;;;;;;;6.53;3.05;;;;;;;18.87;100.00;101338.09;4936550;29;20046;-80
2023/09/29 07:38:19;;;;;;;6.78;2.80;;;;;;;19.09;100.00;101341.44;4953485;28;20019;-78
2023/09/29 07:40:46;;;;;;;6.70;3.10;;;;;;;19.24;100.00;101332.16;4954645;29;20157;-74
2023/09/29 07:43:11;;;;;;;6.00;2.50;;;;;;;19.40;100.00;101336.81;4954261;29;20365;-81
2023/09/29 07:45:39;;;;;;;4.90;2.30;;;;;;;19.58;100.00;101347.44;4953621;29;20049;-76
2023/09/29 07:48:05;;;;;;;5.00;2.58;;;;;;;19.61;100.00;101334.88;4953512;29;20062;-79
2023/09/29 07:50:30;;;;;;;6.15;2.50;;;;;;;19.77;100.00;101348.19;4953243;28;20051;-81
2023/09/29 07:52:56;;;;;;;5.65;2.67;;;;;;;19.88;100.00;101348.97;4953794;29;20038;-77
2023/09/29 07:55:21;;;;;;;5.30;2.55;;;;;;;19.93;100.00;101351.97;4936697;28;20026;-80
2023/09/29 07:57:47;;;;;;;7.55;2.70;;;;;;;19.97;100.00;101350.75;4954402;28;20035;-77
2023/09/29 08:00:12;;;;;;;4.38;2.45;;;;;;;20.01;100.00;101350.28;4936538;28;20118;-79
2023/09/29 08:02:39;;;;;;;3.75;2.40;;;;;;;20.02;100.00;101362.44;4953565;29;20468;-79
2023/09/29 08:05:06;;;;;;;5.45;2.15;;;;;;;19.92;100.00;101351.16;4953442;29;20073;-82
2023/09/29 08:07:32;;;;;;;5.03;2.38;;;;;;;19.93;100.00;101351.97;4953831;28;20035;-84
2023/09/29 08:09:57;;;;;;;6.55;2.58;;;;;;;19.86;100.00;101340.41;4953742;29;20026;-78
2023/09/29 08:12:22;;;;;;;5.75;2.60;;;;;;;20.06;100.00;101357.75;4954138;28;20093;-86
2023/09/29 08:14:47;;;;;;;6.43;2.50;;;;;;;20.27;100.00;101366.19;4953704;29;20431;-85
2023/09/29 08:42:50;;;;;;;5.80;2.58;;;;;;;20.33;100.00;101404.91;5123864;22;20044;-77
2023/09/29 08:45:28;;;;;;;5.35;2.47;;;;;;;20.43;100.00;101410.16;4953038;29;20070;-80
2023/09/29 08:51:34;;;;;;;6.93;2.72;;;;;;;19.82;100.00;101281.41;4953054;28;20045;-76
2023/09/29 08:54:04;;;;;;;5.50;2.72;;;;;;;20.67;100.00;101409.63;4953026;29;20027;-78
2023/09/29 09:00:19;;;;;;;6.10;2.47;;;;;;;20.97;100.00;101420.72;4953372;28;20657;-78
2023/09/29 09:03:01;;;;;;;7.82;3.00;;;;;;;20.26;100.00;101277.16;4953037;29;20043;-83
2023/09/29 09:05:28;;;;;;;6.85;2.80;;;;;;;20.57;100.00;101315.22;4953071;28;20030;-81
2023/09/29 09:07:54;;;;;;;6.55;2.65;;;;;;;20.90;100.00;101363.56;4918797;29;20105;-82
2023/09/29 09:10:32;;;;;;;4.63;2.38;;;;;;;21.42;100.00;101431.97;4952598;29;20020;-83
2023/09/29 09:12:58;;;;;;;5.63;2.50;;;;;;;21.47;98.87;101429.72;4937153;28;20381;-83
2023/09/29 09:15:24;;;;;;;5.65;2.47;;;;;;;21.31;98.32;101418.25;4952915;28;20062;-84
2023/09/29 09:17:49;;;;;;;4.68;2.30;;;;;;;21.44;98.70;101416.91;4952526;29;20027;-81
2023/09/29 09:20:16;;;;;;;6.07;2.40;;;;;;;21.59;99.50;101432.09;4952765;28;20917;-81
2023/09/29 09:22:42;;;;;;;5.70;3.00;;;;;;;21.54;97.39;101440.47;4952224;28;20026;-80
2023/09/29 09:25:08;;;;;;;7.40;3.08;;;;;;;21.46;97.75;101438.59;4952630;28;20384;-79
2023/09/29 09:27:41;;;;;;;6.63;2.80;;;;;;;21.37;98.63;101438.69;4952107;28;20028;-79
2023/09/29 09:30:20;;;;;;;7.10;2.75;;;;;;;21.24;99.34;101449.56;4952672;29;20435;-79
2023/09/29 09:32:46;;;;;;;5.85;2.65;;;;;;;21.09;100.00;101458.91;4935997;28;20089;-79
2023/09/29 09:35:11;;;;;;;7.65;2.90;;;;;;;20.70;100.00;101464.44;4952396;29;20027;-78
2023/09/29 09:37:36;;;;;;;6.75;2.90;;;;;;;20.16;100.00;101452.09;4951995;28;20038;-79
2023/09/29 09:40:05;;;;;;;4.72;3.30;;;;;;;19.66;100.00;101441.84;4952203;28;20035;-78
2023/09/29 09:42:30;;;;;;;5.80;3.40;;;;;;;19.71;100.00;101439.66;4952084;29;20498;-79
2023/09/29 09:47:31;;;;;;;6.50;3.72;;;;;;;20.31;100.00;101461.13;4966014;23;20055;-79
2023/09/29 09:49:57;;;;;;;6.75;3.65;;;;;;;20.38;100.00;101435.97;4952265;29;20023;-78
2023/09/29 09:52:29;;;;;;;7.18;3.50;;;;;;;20.61;100.00;101467.91;4951860;29;20400;-77
2023/09/29 09:55:05;;;;;;;8.18;4.00;;;;;;;20.44;100.00;101451.16;4952077;29;20106;-74
2023/09/29 09:57:35;;;;;;;6.70;3.30;;;;;;;20.65;100.00;101463.19;4952264;29;20039;-74
2023/09/29 10:00:07;;;;;;;6.45;3.35;;;;;;;20.76;100.00;101470.91;4951741;29;20061;-74
2023/09/29 10:05:31;;;;;;;6.22;3.00;;;;;;;20.60;100.00;101463.66;4587413;23;20055;-79
2023/09/29 10:08:05;;;;;;;5.80;3.03;;;;;;;20.34;100.00;101464.28;4951532;29;20156;-78
2023/09/29 10:10:35;;;;;;;5.93;2.95;;;;;;;20.36;100.00;101479.06;4951691;29;20124;-75
2023/09/29 10:13:11;;;;;;;5.75;2.92;;;;;;;20.32;100.00;101479.34;4934411;29;20043;-77
2023/09/29 10:15:37;;;;;;;6.18;2.72;;;;;;;20.26;100.00;101464.19;4934218;29;20039;-77
2023/09/29 10:18:19;;;;;;;6.10;2.90;;;;;;;20.29;100.00;101469.16;4951557;29;20038;-83
2023/09/29 10:21:00;;;;;;;6.70;3.50;;;;;;;20.32;100.00;101468.84;4951919;29;20023;-80
2023/09/29 10:23:30;;;;;;;8.32;3.10;;;;;;;20.31;100.00;101467.19;4951447;28;20019;-79
2023/09/29 10:26:02;;;;;;;6.18;2.65;;;;;;;20.34;100.00;101481.81;4951554;28;20465;-82
2023/09/29 10:28:32;;;;;;;6.35;2.80;;;;;;;20.41;100.00;101476.81;4934552;29;20034;-79
2023/09/29 10:31:18;;;;;;;7.43;2.60;;;;;;;20.65;100.00;101465.81;4952273;28;20027;-78
2023/09/29 10:33:51;;;;;;;7.50;2.15;;;;;;;20.80;100.00;101483.56;4951728;29;20110;-84
2023/09/29 10:36:18;;;;;;;6.05;2.67;;;;;;;20.92;100.00;101492.88;4951315;29;20118;-80
2023/09/29 10:38:43;;;;;;;6.38;2.60;;;;;;;20.94;100.00;101484.03;4951428;29;20019;-81
2023/09/29 10:41:09;;;;;;;5.60;2.28;;;;;;;20.92;100.00;101490.25;4953886;28;20030;-84
2023/09/29 10:43:36;;;;;;;5.55;2.60;;;;;;;20.79;100.00;101481.09;4955278;28;20170;-76
2023/09/29 10:46:08;;;;;;;7.95;2.78;;;;;;;20.80;100.00;101496.69;4954855;28;20536;-78
2023/09/29 10:48:42;;;;;;;7.80;2.78;;;;;;;20.78;100.00;101510.94;4954509;29;20032;-76
2023/09/29 10:51:08;;;;;;;5.97;2.70;;;;;;;20.62;100.00;101495.81;4954060;29;20055;-76
2023/09/29 10:53:36;;;;;;;5.72;2.40;;;;;;;20.59;100.00;101511.84;4954699;29;20136;-74
2023/09/29 10:56:03;;;;;;;5.50;2.40;;;;;;;20.45;100.00;101509.69;4954759;28;20035;-74
2023/09/29 10:58:39;;;;;;;5.70;2.47;;;;;;;20.27;100.00;101493.88;4954464;28;20032;-81
2023/09/29 11:01:38;;;;;;;6.22;2.50;;;;;;;20.36;100.00;101526.28;4957015;29;20350;-81
2023/09/29 11:04:08;;;;;;;5.80;2.80;;;;;;;20.23;100.00;101522.16;4965108;28;20042;-86
2023/09/29 11:06:47;;;;;;;6.13;2.67;;;;;;;20.32;100.00;101510.00;5017517;28;20049;-86
2023/09/29 11:19:36;;;;;;;5.32;2.60;;;;;;;21.45;100.00;101512.34;5206246;23;20063;-77
2023/09/29 11:22:03;;;;;;;4.70;2.80;;;;;;;21.89;100.00;101530.75;4954272;29;20031;-80
2023/09/29 11:24:38;;;;;;;6.90;3.25;;;;;;;21.87;99.25;101515.13;4954026;29;20027;-78
2023/09/29 11:27:05;;;;;;;5.80;3.20;;;;;;;21.91;98.48;101536.66;4953934;29;20035;-80
2023/09/29 11:29:31;;;;;;;6.00;3.30;;;;;;;21.90;97.19;101537.66;4936937;29;20042;-78
2023/09/29 11:31:57;;;;;;;8.27;3.47;;;;;;;21.93;96.94;101525.03;4936792;29;20032;-76
2023/09/29 11:34:23;;;;;;;6.13;2.90;;;;;;;22.02;97.12;101533.78;4954197;29;20092;-80
2023/09/29 11:36:49;;;;;;;4.97;2.65;;;;;;;22.08;95.92;101546.38;4954023;29;20035;-80
2023/09/29 11:39:19;;;;;;;6.38;2.55;;;;;;;22.04;96.01;101551.09;4954022;28;20093;-79
2023/09/29 11:41:45;;;;;;;6.28;2.60;;;;;;;21.85;96.00;101517.09;4954278;29;20027;-80
2023/09/29 11:44:12;;;;;;;5.10;2.55;;;;;;;21.95;96.98;101543.28;4954113;29;20153;-79
2023/09/29 11:46:37;;;;;;;6.47;2.90;;;;;;;21.76;97.79;101542.50;4953672;28;20557;-77
2023/09/29 11:49:02;;;;;;;6.82;2.78;;;;;;;21.56;99.62;101545.44;4953937;29;20118;-76
2023/09/29 11:51:31;;;;;;;5.75;2.70;;;;;;;21.31;100.00;101531.22;4953293;28;20500;-75
2023/09/29 11:53:56;;;;;;;4.53;2.60;;;;;;;21.47;100.00;101555.88;4936639;29;20027;-75
2023/09/29 11:56:22;;;;;;;5.70;2.47;;;;;;;21.37;100.00;101539.34;4953797;29;20373;-78
2023/09/29 11:58:47;;;;;;;4.93;2.40;;;;;;;21.56;100.00;101569.09;4954040;29;20114;-78
2023/09/29 12:01:13;;;;;;;4.82;2.88;;;;;;;21.47;100.00;101563.75;4953827;28;20046;-76
2023/09/29 12:03:39;;;;;;;4.28;2.58;;;;;;;21.46;100.00;101566.53;4938655;29;20035;-76
2023/09/29 12:06:04;;;;;;;6.10;2.63;;;;;;;21.38;100.00;101561.19;4955632;29;20484;-79
2023/09/29 12:08:30;;;;;;;4.10;2.72;;;;;;;21.19;100.00;101538.47;4954421;29;20027;-75
2023/09/29 12:10:55;;;;;;;3.90;2.72;;;;;;;21.24;100.00;101553.78;4953834;29;20037;-77
2023/09/29 12:13:21;;;;;;;5.05;2.70;;;;;;;21.08;100.00;101578.91;4953624;29;20069;-76